virtualACA

Welcome To Vancouver International Airport CYVR

Hub Roster

Pilot Domicile Rank
Brian Kozushka - ACA1102CanadaChief Pilot
Thomas Geoghegan - ACA1617United StatesChief Pilot
Jean-Michel Lazare - ACA2310FranceChief Pilot
Mike MCPHERSON - ACA3057CanadaSecond Officer

Current Vatsim Weather


CYVR 240700Z 17012KT 20SM SCT079 OVC092 10/06 A2986 RMK AC3AC5 SLP114
Vancouver International Airport